createdAt,value
2019-02-04T00:00:58.476Z,8.83
2019-02-04T00:03:27.566Z,8.70
2019-02-04T00:05:56.591Z,7.22
2019-02-04T00:08:26.076Z,8.20
2019-02-04T00:10:55.258Z,8.25
2019-02-04T00:13:24.053Z,9.30
2019-02-04T00:15:52.929Z,8.45
2019-02-04T00:18:21.798Z,10.25
2019-02-04T00:20:50.853Z,11.48
2019-02-04T00:23:20.094Z,12.82
2019-02-04T00:25:48.889Z,10.03
2019-02-04T00:28:17.761Z,10.23
2019-02-04T00:30:46.689Z,7.90
2019-02-04T00:33:15.468Z,8.75
2019-02-04T00:35:44.257Z,8.08
2019-02-04T00:38:13.473Z,8.60
2019-02-04T00:40:42.578Z,8.25
2019-02-04T00:43:11.598Z,9.28
2019-02-04T00:45:40.539Z,10.48
2019-02-04T00:48:09.641Z,10.28
2019-02-04T00:50:38.587Z,11.78
2019-02-04T00:53:08.065Z,9.78
2019-02-04T00:55:36.846Z,9.80
2019-02-04T00:58:05.891Z,9.98
2019-02-04T01:00:34.821Z,9.70
2019-02-04T01:03:04.045Z,11.03
2019-02-04T01:05:33.408Z,9.53
2019-02-04T01:08:02.813Z,9.05
2019-02-04T01:10:31.757Z,8.43
2019-02-04T01:13:00.617Z,9.58
2019-02-04T01:15:29.561Z,9.65
2019-02-04T01:17:58.402Z,9.35
2019-02-04T01:20:28.822Z,9.13
2019-02-04T01:22:58.263Z,10.08
2019-02-04T01:25:27.710Z,9.33
2019-02-04T01:27:56.572Z,10.05
2019-02-04T01:30:25.825Z,8.30
2019-02-04T01:32:55.007Z,10.03
2019-02-04T01:35:23.997Z,9.65
2019-02-04T01:37:53.460Z,9.30
2019-02-04T01:40:24.234Z,9.93
2019-02-04T01:42:53.819Z,9.73
2019-02-04T01:45:23.161Z,8.65
2019-02-04T01:47:52.096Z,9.08
2019-02-04T01:50:22.661Z,9.65
2019-02-04T01:52:51.449Z,9.50
2019-02-04T01:55:20.557Z,10.00
2019-02-04T01:57:51.953Z,10.70
2019-02-04T02:00:23.718Z,8.98
2019-02-04T02:02:52.941Z,9.65
2019-02-04T02:05:21.814Z,9.63
2019-02-04T02:07:50.762Z,9.30
2019-02-04T02:10:21.794Z,10.45
2019-02-04T02:12:50.968Z,9.08
2019-02-04T02:15:19.934Z,9.28
2019-02-04T02:17:49.366Z,9.65
2019-02-04T02:20:29.545Z,7.87
2019-02-04T02:22:58.409Z,9.30
2019-02-04T02:25:27.782Z,9.03
2019-02-04T02:27:56.639Z,8.55
2019-02-04T02:30:27.622Z,9.13
2019-02-04T02:32:56.545Z,9.05
2019-02-04T02:35:25.655Z,8.43
2019-02-04T02:37:54.837Z,8.78
2019-02-04T02:40:29.521Z,8.73
2019-02-04T02:42:58.837Z,8.45
2019-02-04T02:45:27.709Z,9.45
2019-02-04T02:47:56.582Z,8.65
2019-02-04T02:50:25.459Z,10.10
2019-02-04T02:52:54.388Z,8.48
2019-02-04T02:55:23.250Z,9.65
2019-02-04T02:57:52.051Z,9.05
2019-02-04T03:00:26.181Z,9.95
2019-02-04T03:02:55.173Z,10.45
2019-02-04T03:05:24.049Z,11.60
2019-02-04T03:07:52.963Z,10.65
2019-02-04T03:10:27.327Z,9.85
2019-02-04T03:12:56.271Z,9.08
2019-02-04T03:15:25.193Z,9.75
2019-02-04T03:17:54.399Z,9.30
2019-02-04T03:20:23.268Z,10.00
2019-02-04T03:22:52.138Z,10.10
2019-02-04T03:25:21.482Z,9.58
2019-02-04T03:27:50.531Z,10.70
2019-02-04T03:30:22.698Z,10.05
2019-02-04T03:32:52.023Z,9.30
2019-02-04T03:35:21.036Z,10.50
2019-02-04T03:37:52.319Z,10.20
2019-02-04T03:40:22.561Z,9.73
2019-02-04T03:42:51.425Z,9.98
2019-02-04T03:45:20.463Z,10.53
2019-02-04T03:47:49.538Z,11.68
2019-02-04T03:50:18.841Z,10.30
2019-02-04T03:52:47.717Z,11.05
2019-02-04T03:55:17.376Z,10.95
2019-02-04T03:57:46.413Z,12.33
2019-02-04T04:00:20.867Z,11.73
2019-02-04T04:02:49.825Z,10.98
2019-02-04T04:05:18.601Z,10.55
2019-02-04T04:07:47.470Z,11.65
2019-02-04T04:10:16.805Z,11.53
2019-02-04T04:12:45.749Z,10.40
2019-02-04T04:15:14.982Z,11.33
2019-02-04T04:17:43.786Z,10.72
2019-02-04T04:20:14.128Z,11.33
2019-02-04T04:22:43.018Z,9.80
2019-02-04T04:25:13.618Z,11.57
2019-02-04T04:27:42.649Z,10.30
2019-02-04T04:30:17.624Z,10.72
2019-02-04T04:32:46.738Z,12.05
2019-02-04T04:35:16.423Z,10.98
2019-02-04T04:37:45.468Z,11.10
2019-02-04T04:40:14.692Z,10.93
2019-02-04T04:42:43.592Z,10.25
2019-02-04T04:45:15.067Z,10.50
2019-02-04T04:47:43.941Z,29.57
2019-02-04T04:50:13.194Z,28.98
2019-02-04T04:52:42.077Z,24.65
2019-02-04T04:55:12.626Z,19.02
2019-02-04T04:57:41.921Z,16.20
2019-02-04T05:00:14.292Z,15.03
2019-02-04T05:02:43.876Z,14.83
2019-02-04T05:05:13.374Z,14.28
2019-02-04T05:07:49.306Z,15.85
2019-02-04T05:10:19.070Z,16.55
2019-02-04T05:12:48.026Z,13.62
2019-02-04T05:15:19.404Z,15.05
2019-02-04T05:17:48.286Z,13.78
2019-02-04T05:20:17.777Z,15.70
2019-02-04T05:22:46.639Z,14.50
2019-02-04T05:25:24.000Z,16.70
2019-02-04T05:27:53.391Z,18.30
2019-02-04T05:30:23.399Z,15.93
2019-02-04T05:32:52.343Z,17.45
2019-02-04T05:35:21.209Z,15.50
2019-02-04T05:37:50.001Z,14.25
2019-02-04T05:40:19.153Z,16.10
2019-02-04T05:42:48.575Z,14.10
2019-02-04T05:45:18.609Z,13.98
2019-02-04T05:47:47.863Z,15.28
2019-02-04T05:50:18.381Z,15.15
2019-02-04T05:52:47.764Z,13.93
2019-02-04T05:55:17.995Z,15.40
2019-02-04T05:57:47.083Z,14.00
2019-02-04T06:00:37.302Z,14.25
2019-02-04T06:03:06.478Z,14.20
2019-02-04T06:05:35.538Z,14.03
2019-02-04T06:08:04.500Z,15.72
2019-02-04T06:10:33.436Z,13.85
2019-02-04T06:13:02.547Z,15.98
2019-02-04T06:15:31.585Z,15.35
2019-02-04T06:18:00.465Z,15.63
2019-02-04T06:20:29.399Z,15.65
2019-02-04T06:22:58.180Z,14.87
2019-02-04T06:25:26.971Z,17.00
2019-02-04T06:27:56.085Z,18.40
2019-02-04T06:30:24.958Z,19.98
2019-02-04T06:32:53.734Z,18.32
2019-02-04T06:35:22.661Z,15.08
2019-02-04T06:37:51.510Z,15.80
2019-02-04T06:40:20.366Z,15.25
2019-02-04T06:42:49.222Z,14.73
2019-02-04T06:45:18.683Z,16.50
2019-02-04T06:47:47.630Z,16.02
2019-02-04T06:50:17.314Z,15.98
2019-02-04T06:52:46.097Z,15.45
2019-02-04T06:55:17.762Z,15.95
2019-02-04T06:57:46.617Z,15.28
2019-02-04T07:00:15.941Z,15.50
2019-02-04T07:02:45.261Z,15.78
2019-02-04T07:05:14.594Z,14.98
2019-02-04T07:07:43.397Z,17.48
2019-02-04T07:10:15.718Z,16.10
2019-02-04T07:12:44.517Z,14.35
2019-02-04T07:15:13.745Z,15.23
2019-02-04T07:17:42.941Z,16.95
2019-02-04T07:20:23.893Z,32.75
2019-02-04T07:22:52.931Z,29.65
2019-02-04T07:25:22.770Z,22.90
2019-02-04T07:27:51.701Z,21.00
2019-02-04T07:30:22.409Z,19.87
2019-02-04T07:32:51.782Z,19.80
2019-02-04T07:35:20.830Z,21.07
2019-02-04T07:37:49.969Z,15.55
2019-02-04T07:40:24.094Z,15.88
2019-02-04T07:42:53.254Z,15.20
2019-02-04T07:45:22.185Z,14.60
2019-02-04T07:47:51.724Z,12.85
2019-02-04T07:50:20.587Z,13.18
2019-02-04T07:52:49.538Z,14.43
2019-02-04T07:55:18.473Z,15.53
2019-02-04T07:57:47.616Z,14.33
2019-02-04T08:00:30.441Z,13.83
2019-02-04T08:03:00.105Z,15.80
2019-02-04T08:05:29.509Z,16.20
2019-02-04T08:07:58.474Z,17.20
2019-02-04T08:10:27.325Z,18.10
2019-02-04T08:13:01.487Z,18.23
2019-02-04T08:15:32.210Z,17.12
2019-02-04T08:18:01.044Z,18.75
2019-02-04T08:20:30.287Z,16.82
2019-02-04T08:22:59.091Z,17.23
2019-02-04T08:25:28.010Z,16.02
2019-02-04T08:27:57.245Z,14.83
2019-02-04T08:30:28.198Z,15.23
2019-02-04T08:32:57.687Z,13.43
2019-02-04T08:35:26.606Z,13.32
2019-02-04T08:37:55.872Z,13.80
2019-02-04T08:40:24.798Z,13.00
2019-02-04T08:42:54.365Z,16.93
2019-02-04T08:45:23.303Z,13.13
2019-02-04T08:47:52.267Z,15.08
2019-02-04T08:50:21.583Z,13.50
2019-02-04T08:52:50.605Z,14.47
2019-02-04T08:55:19.729Z,15.53
2019-02-04T08:57:48.914Z,15.00
2019-02-04T09:00:19.592Z,18.15
2019-02-04T09:02:48.709Z,16.25
2019-02-04T09:05:18.341Z,13.43
2019-02-04T09:07:47.529Z,15.80
2019-02-04T09:10:22.227Z,13.20
2019-02-04T09:12:51.737Z,12.70
2019-02-04T09:15:20.699Z,14.25
2019-02-04T09:17:49.755Z,14.10
2019-02-04T09:20:20.309Z,13.10
2019-02-04T09:22:49.166Z,12.70
2019-02-04T09:25:18.148Z,12.90
2019-02-04T09:27:47.157Z,12.95
2019-02-04T09:30:18.489Z,13.32
2019-02-04T09:32:47.710Z,12.13
2019-02-04T09:35:17.753Z,14.03
2019-02-04T09:37:46.624Z,13.10
2019-02-04T09:40:21.732Z,13.70
2019-02-04T09:42:50.774Z,12.20
2019-02-04T09:45:19.726Z,13.37
2019-02-04T09:47:48.830Z,13.03
2019-02-04T09:50:22.009Z,13.13
2019-02-04T09:52:49.551Z,12.87
2019-02-04T09:55:23.859Z,12.07
2019-02-04T09:57:53.328Z,12.27
2019-02-04T10:00:24.516Z,12.43
2019-02-04T10:02:53.630Z,14.40
2019-02-04T10:05:22.943Z,16.77
2019-02-04T10:07:51.789Z,15.30
2019-02-04T10:10:23.256Z,16.57
2019-02-04T10:12:52.722Z,15.43
2019-02-04T10:15:24.039Z,16.02
2019-02-04T10:17:52.995Z,15.70
2019-02-04T10:20:33.110Z,16.35
2019-02-04T10:22:53.045Z,17.40
2019-02-04T10:25:23.993Z,17.42
2019-02-04T10:27:52.873Z,18.48
2019-02-04T10:30:22.487Z,15.60
2019-02-04T10:32:51.537Z,16.87
2019-02-04T10:35:20.550Z,17.00
2019-02-04T10:37:50.123Z,16.90
2019-02-04T10:40:23.265Z,17.35
2019-02-04T10:42:52.229Z,17.35
2019-02-04T10:45:21.347Z,16.45
2019-02-04T10:47:50.603Z,17.65
2019-02-04T10:50:24.659Z,17.42
2019-02-04T10:52:53.572Z,15.63
2019-02-04T10:55:22.518Z,15.40
2019-02-04T10:57:51.545Z,17.50
2019-02-04T11:00:22.555Z,16.62
2019-02-04T11:02:51.598Z,17.15
2019-02-04T11:05:23.256Z,17.48
2019-02-04T11:07:52.201Z,15.72
2019-02-04T11:10:22.954Z,25.15
2019-02-04T11:12:52.021Z,19.52
2019-02-04T11:15:21.229Z,24.82
2019-02-04T11:17:50.989Z,16.55
2019-02-04T11:20:22.811Z,15.95
2019-02-04T11:22:52.214Z,15.32
2019-02-04T11:25:21.357Z,16.42
2019-02-04T11:27:50.517Z,16.82
2019-02-04T11:30:30.847Z,15.65
2019-02-04T11:33:00.016Z,15.08
2019-02-04T11:35:29.079Z,15.13
2019-02-04T11:37:58.503Z,15.53
2019-02-04T11:40:35.618Z,19.23
2019-02-04T11:43:04.947Z,15.70
2019-02-04T11:45:33.944Z,15.80
2019-02-04T11:48:03.852Z,15.75
2019-02-04T11:50:32.772Z,20.50
2019-02-04T11:53:01.633Z,15.72
2019-02-04T11:55:30.578Z,16.15
2019-02-04T11:57:59.621Z,15.20
2019-02-04T12:00:29.112Z,17.20
2019-02-04T12:02:58.929Z,16.60
2019-02-04T12:05:27.797Z,14.90
2019-02-04T12:07:56.786Z,14.90
2019-02-04T12:10:31.558Z,15.13
2019-02-04T12:13:00.984Z,15.15
2019-02-04T12:15:29.857Z,17.32
2019-02-04T12:17:58.699Z,13.32
2019-02-04T12:20:27.653Z,12.90
2019-02-04T12:22:57.698Z,12.58
2019-02-04T12:25:26.938Z,10.00
2019-02-04T12:27:57.113Z,10.08
2019-02-04T12:30:31.499Z,11.20
2019-02-04T12:33:00.567Z,9.65
2019-02-04T12:35:29.771Z,10.90
2019-02-04T12:37:58.916Z,10.55
2019-02-04T12:40:27.995Z,10.80
2019-02-04T12:42:56.956Z,9.83
2019-02-04T12:45:28.085Z,8.15
2019-02-04T12:48:00.533Z,10.70
2019-02-04T12:50:28.049Z,9.80
2019-02-04T12:52:56.901Z,10.80
2019-02-04T12:55:27.411Z,9.50
2019-02-04T12:57:56.348Z,11.28
2019-02-04T13:00:27.843Z,10.25
2019-02-04T13:02:57.248Z,9.15
2019-02-04T13:05:37.918Z,20.08
2019-02-04T13:08:08.506Z,9.63
2019-02-04T13:10:37.445Z,9.13
2019-02-04T13:13:09.702Z,7.50
2019-02-04T13:15:39.069Z,9.03
2019-02-04T13:18:09.985Z,8.75
2019-02-04T13:20:39.911Z,8.95
2019-02-04T13:23:08.914Z,12.25
2019-02-04T13:25:38.046Z,10.08
2019-02-04T13:28:12.550Z,23.90
2019-02-04T13:30:41.641Z,26.27
2019-02-04T13:33:10.819Z,12.60
2019-02-04T13:35:40.194Z,9.08
2019-02-04T13:38:09.064Z,19.65
2019-02-04T13:40:38.573Z,12.45
2019-02-04T13:43:07.461Z,7.08
2019-02-04T13:45:36.390Z,6.80
2019-02-04T13:48:08.428Z,6.00
2019-02-04T13:50:38.246Z,6.65
2019-02-04T13:53:07.430Z,6.50
2019-02-04T13:55:36.480Z,7.77
2019-02-04T13:58:05.934Z,6.70
2019-02-04T14:00:35.867Z,7.90
2019-02-04T14:03:05.794Z,7.10
2019-02-04T14:05:34.729Z,6.70
2019-02-04T14:08:03.923Z,7.05
2019-02-04T14:10:35.492Z,8.30
2019-02-04T14:13:05.009Z,6.47
2019-02-04T14:15:35.565Z,5.45
2019-02-04T14:18:05.322Z,7.08
2019-02-04T14:20:36.997Z,6.90
2019-02-04T14:23:06.046Z,6.20
2019-02-04T14:25:35.274Z,5.78
2019-02-04T14:28:05.499Z,6.53
2019-02-04T14:30:36.959Z,7.20
2019-02-04T14:33:06.429Z,6.35
2019-02-04T14:35:35.277Z,6.47
2019-02-04T14:38:05.186Z,7.53
2019-02-04T14:40:34.912Z,6.25
2019-02-04T14:43:11.082Z,6.60
2019-02-04T14:46:34.467Z,5.53
2019-02-04T14:49:59.937Z,6.10
2019-02-04T14:52:50.977Z,5.70
2019-02-04T14:56:02.582Z,5.92
2019-02-04T14:58:46.608Z,6.35
2019-02-04T15:01:58.410Z,5.45
2019-02-04T15:05:05.170Z,5.60
2019-02-04T15:08:11.267Z,5.78
2019-02-04T15:11:00.210Z,6.72
2019-02-04T15:13:53.578Z,6.17
2019-02-04T15:16:36.314Z,6.20
2019-02-04T15:19:38.622Z,7.15
2019-02-04T15:22:38.814Z,5.53
2019-02-04T15:25:58.065Z,5.83
2019-02-04T15:28:59.829Z,7.37
2019-02-04T15:32:01.190Z,13.48
2019-02-04T15:35:05.205Z,6.30
2019-02-04T15:38:05.961Z,6.72
2019-02-04T15:40:41.699Z,5.95
2019-02-04T15:43:18.558Z,6.25
2019-02-04T15:45:59.943Z,6.65
2019-02-04T15:48:47.669Z,6.40
2019-02-04T15:51:28.443Z,6.33
2019-02-04T15:53:59.218Z,6.33
2019-02-04T15:56:28.006Z,6.40
2019-02-04T15:58:56.794Z,7.22
2019-02-04T16:01:25.971Z,6.03
2019-02-04T16:03:54.761Z,7.42
2019-02-04T16:06:24.047Z,7.22
2019-02-04T16:08:53.449Z,6.90
2019-02-04T16:11:22.594Z,6.85
2019-02-04T16:13:51.656Z,6.90
2019-02-04T16:16:20.610Z,7.10
2019-02-04T16:18:49.425Z,7.05
2019-02-04T16:21:18.326Z,6.80
2019-02-04T16:23:47.506Z,7.37
2019-02-04T16:26:16.547Z,7.15
2019-02-04T16:28:45.631Z,6.75
2019-02-04T16:31:14.828Z,7.15
2019-02-04T16:33:43.708Z,6.60
2019-02-04T16:36:12.478Z,8.15
2019-02-04T16:38:41.558Z,7.87
2019-02-04T16:41:10.361Z,7.50
2019-02-04T16:43:39.222Z,7.05
2019-02-04T16:46:08.246Z,7.97
2019-02-04T16:48:37.055Z,8.20
2019-02-04T16:51:11.702Z,8.23
2019-02-04T16:53:36.676Z,7.45
2019-02-04T16:56:05.547Z,7.10
2019-02-04T16:58:34.592Z,6.85
2019-02-04T17:01:03.734Z,8.48
2019-02-04T17:03:32.785Z,8.68
2019-02-04T17:06:01.879Z,9.43
2019-02-04T17:08:31.305Z,10.03
2019-02-04T17:11:00.246Z,10.93
2019-02-04T17:13:29.288Z,10.40
2019-02-04T17:15:58.225Z,11.95
2019-02-04T17:18:27.026Z,12.30
2019-02-04T17:20:56.241Z,10.82
2019-02-04T17:23:25.640Z,11.50
2019-02-04T17:25:54.571Z,13.05
2019-02-04T17:28:23.348Z,13.00
2019-02-04T17:30:52.310Z,13.03
2019-02-04T17:33:21.667Z,12.05
2019-02-04T17:35:50.457Z,13.50
2019-02-04T17:38:19.269Z,13.00
2019-02-04T17:40:48.398Z,13.35
2019-02-04T17:43:17.389Z,12.13
2019-02-04T17:45:46.288Z,12.30
2019-02-04T17:48:15.248Z,11.80
2019-02-04T17:50:44.106Z,13.30
2019-02-04T17:53:13.402Z,13.68
2019-02-04T17:55:42.442Z,13.55
2019-02-04T17:58:11.663Z,13.95
2019-02-04T18:00:47.369Z,14.43
2019-02-04T18:03:16.710Z,15.00
2019-02-04T18:05:45.709Z,14.68
2019-02-04T18:08:15.558Z,14.70
2019-02-04T18:10:44.779Z,19.10
2019-02-04T18:13:13.681Z,16.65
2019-02-04T18:15:42.565Z,18.02
2019-02-04T18:18:12.063Z,16.70
2019-02-04T18:20:40.924Z,18.77
2019-02-04T18:23:11.294Z,19.15
2019-02-04T18:25:41.171Z,16.80
2019-02-04T18:28:10.145Z,15.83
2019-02-04T18:30:38.942Z,14.93
2019-02-04T18:33:08.045Z,14.25
2019-02-04T18:35:37.401Z,14.83
2019-02-04T18:38:06.654Z,17.10
2019-02-04T18:40:35.449Z,20.05
2019-02-04T18:43:04.344Z,71.10
2019-02-04T18:45:33.404Z,46.85
2019-02-04T18:48:02.597Z,49.38
2019-02-04T18:50:32.127Z,56.25
2019-02-04T18:53:01.243Z,35.68
2019-02-04T18:55:32.377Z,46.83
2019-02-04T18:58:01.305Z,39.70
2019-02-04T19:00:30.883Z,35.20
2019-02-04T19:03:00.327Z,32.03
2019-02-04T19:05:30.073Z,27.05
2019-02-04T19:07:58.891Z,22.80
2019-02-04T19:10:27.778Z,17.82
2019-02-04T19:12:56.738Z,21.00
2019-02-04T19:15:25.809Z,21.35
2019-02-04T19:17:57.057Z,20.75
2019-02-04T19:20:25.838Z,19.00
2019-02-04T19:22:54.621Z,18.52
2019-02-04T19:25:23.406Z,16.40
2019-02-04T19:27:52.359Z,15.25
2019-02-04T19:30:24.790Z,21.75
2019-02-04T19:32:54.656Z,27.32
2019-02-04T19:35:23.817Z,36.20
2019-02-04T19:37:52.718Z,20.90
2019-02-04T19:40:21.872Z,19.82
2019-02-04T19:42:50.911Z,21.10
2019-02-04T19:45:20.127Z,22.65
2019-02-04T19:47:49.725Z,25.17
2019-02-04T19:50:21.613Z,21.55
2019-02-04T19:52:50.485Z,21.25
2019-02-04T19:55:19.668Z,32.20
2019-02-04T19:57:48.525Z,19.02
2019-02-04T20:00:20.705Z,22.35
2019-02-04T20:02:49.814Z,21.55
2019-02-04T20:05:20.293Z,21.70
2019-02-04T20:07:49.677Z,26.20
2019-02-04T20:10:20.946Z,39.55
2019-02-04T20:12:49.837Z,27.30
2019-02-04T20:15:21.286Z,26.33
2019-02-04T20:17:50.158Z,28.57
2019-02-04T20:20:20.182Z,21.10
2019-02-04T20:22:49.058Z,76.40
2019-02-04T20:25:20.530Z,40.43
2019-02-04T20:27:49.305Z,25.17
2019-02-04T20:30:20.868Z,26.15
2019-02-04T20:32:49.646Z,29.55
2019-02-04T20:35:18.602Z,27.20
2019-02-04T20:37:47.401Z,24.98
2019-02-04T20:40:18.081Z,24.27
2019-02-04T20:42:46.981Z,29.20
2019-02-04T20:45:16.043Z,25.40
2019-02-04T20:47:45.021Z,20.62
2019-02-04T20:50:19.965Z,18.50
2019-02-04T20:52:48.846Z,17.55
2019-02-04T20:55:17.723Z,16.65
2019-02-04T20:57:46.625Z,13.83
2019-02-04T21:00:20.782Z,14.43
2019-02-04T21:02:49.561Z,13.93
2019-02-04T21:05:18.711Z,14.03
2019-02-04T21:07:47.641Z,14.20
2019-02-04T21:10:18.594Z,14.25
2019-02-04T21:12:47.477Z,14.90
2019-02-04T21:15:17.858Z,14.40
2019-02-04T21:17:47.066Z,13.10
2019-02-04T21:20:18.046Z,13.20
2019-02-04T21:22:47.066Z,14.58
2019-02-04T21:25:16.458Z,15.15
2019-02-04T21:27:45.895Z,13.32
2019-02-04T21:30:26.025Z,14.28
2019-02-04T21:32:54.893Z,14.47
2019-02-04T21:35:24.137Z,14.43
2019-02-04T21:37:52.991Z,14.05
2019-02-04T21:40:21.942Z,15.63
2019-02-04T21:42:50.877Z,16.67
2019-02-04T21:45:20.598Z,14.45
2019-02-04T21:47:49.561Z,14.50
2019-02-04T21:50:20.349Z,15.10
2019-02-04T21:52:49.634Z,15.90
2019-02-04T21:55:19.869Z,13.88
2019-02-04T21:57:48.850Z,14.23
2019-02-04T22:00:26.108Z,15.08
2019-02-04T22:02:58.073Z,14.55
2019-02-04T22:05:28.492Z,15.03
2019-02-04T22:07:57.351Z,14.18
2019-02-04T22:10:26.990Z,14.90
2019-02-04T22:12:55.954Z,15.72
2019-02-04T22:15:25.385Z,15.58
2019-02-04T22:17:54.320Z,15.58
2019-02-04T22:20:23.407Z,15.80
2019-02-04T22:22:52.260Z,16.75
2019-02-04T22:25:22.389Z,16.20
2019-02-04T22:27:51.573Z,15.35
2019-02-04T22:30:22.405Z,15.32
2019-02-04T22:32:51.849Z,16.97
2019-02-04T22:35:20.793Z,15.55
2019-02-04T22:37:49.733Z,15.23
2019-02-04T22:40:29.762Z,15.83
2019-02-04T22:42:59.225Z,15.60
2019-02-04T22:45:28.166Z,15.05
2019-02-04T22:47:57.123Z,14.80
2019-02-04T22:50:28.283Z,16.32
2019-02-04T22:52:57.609Z,16.50
2019-02-04T22:55:32.012Z,17.20
2019-02-04T22:57:57.479Z,19.12
2019-02-04T23:00:53.053Z,17.35
2019-02-04T23:03:22.933Z,17.90
2019-02-04T23:05:51.910Z,16.55
2019-02-04T23:08:20.793Z,18.48
2019-02-04T23:10:49.749Z,19.92
2019-02-04T23:13:18.631Z,19.10
2019-02-04T23:15:47.580Z,18.40
2019-02-04T23:18:16.438Z,18.00
2019-02-04T23:20:45.373Z,16.90
2019-02-04T23:23:14.229Z,16.20
2019-02-04T23:25:43.914Z,17.17
2019-02-04T23:28:13.300Z,17.35
2019-02-04T23:30:42.250Z,17.42
2019-02-04T23:33:11.118Z,16.85
2019-02-04T23:35:40.318Z,14.50
2019-02-04T23:38:09.239Z,16.45
2019-02-04T23:40:38.106Z,17.07
2019-02-04T23:43:07.033Z,16.15
2019-02-04T23:45:35.969Z,17.12
2019-02-04T23:48:05.651Z,16.48
2019-02-04T23:50:35.013Z,17.40
2019-02-04T23:53:04.675Z,14.47
2019-02-04T23:55:33.542Z,16.87
2019-02-04T23:58:02.330Z,16.35
